sensor_id;sensor_type;location;lat;lon;timestamp;P1;durP1;ratioP1;P2;durP2;ratioP2
11034;SDS011;5571;48.110;-1.706;2023-05-21T00:00:57;9.17;;;3.60;;
11034;SDS011;5571;48.110;-1.706;2023-05-21T00:03:24;9.43;;;3.63;;
11034;SDS011;5571;48.110;-1.706;2023-05-21T00:05:52;10.33;;;3.70;;
11034;SDS011;5571;48.110;-1.706;2023-05-21T00:08:18;9.07;;;3.63;;
11034;SDS011;5571;48.110;-1.706;2023-05-21T00:10:44;10.80;;;3.77;;
11034;SDS011;5571;48.110;-1.706;2023-05-21T00:13:10;11.40;;;3.50;;
11034;SDS011;5571;48.110;-1.706;2023-05-21T00:15:36;10.13;;;3.40;;
11034;SDS011;5571;48.110;-1.706;2023-05-21T00:18:02;10.57;;;4.30;;
11034;SDS011;5571;48.110;-1.706;2023-05-21T00:20:28;10.90;;;3.87;;
11034;SDS011;5571;48.110;-1.706;2023-05-21T00:22:56;8.23;;;3.90;;
11034;SDS011;5571;48.110;-1.706;2023-05-21T00:25:22;10.73;;;3.47;;
11034;SDS011;5571;48.110;-1.706;2023-05-21T00:27:48;8.43;;;3.60;;
11034;SDS011;5571;48.110;-1.706;2023-05-21T00:30:13;12.50;;;3.40;;
11034;SDS011;5571;48.110;-1.706;2023-05-21T00:32:40;9.47;;;3.77;;
11034;SDS011;5571;48.110;-1.706;2023-05-21T00:35:05;8.60;;;3.80;;
11034;SDS011;5571;48.110;-1.706;2023-05-21T00:37:31;10.27;;;3.43;;
11034;SDS011;5571;48.110;-1.706;2023-05-21T00:39:59;14.23;;;3.60;;
11034;SDS011;5571;48.110;-1.706;2023-05-21T00:42:31;11.43;;;4.07;;
11034;SDS011;5571;48.110;-1.706;2023-05-21T00:44:57;13.93;;;4.13;;
11034;SDS011;5571;48.110;-1.706;2023-05-21T00:47:23;8.67;;;3.93;;
11034;SDS011;5571;48.110;-1.706;2023-05-21T00:49:53;9.27;;;3.90;;
11034;SDS011;5571;48.110;-1.706;2023-05-21T00:52:19;9.13;;;4.10;;
11034;SDS011;5571;48.110;-1.706;2023-05-21T00:54:46;11.40;;;6.13;;
11034;SDS011;5571;48.110;-1.706;2023-05-21T00:57:13;13.83;;;6.73;;
11034;SDS011;5571;48.110;-1.706;2023-05-21T00:59:38;18.57;;;9.77;;
11034;SDS011;5571;48.110;-1.706;2023-05-21T01:02:04;10.60;;;4.87;;
11034;SDS011;5571;48.110;-1.706;2023-05-21T01:04:30;15.27;;;8.23;;
11034;SDS011;5571;48.110;-1.706;2023-05-21T01:06:56;18.60;;;9.73;;
11034;SDS011;5571;48.110;-1.706;2023-05-21T01:09:25;10.63;;;5.20;;
11034;SDS011;5571;48.110;-1.706;2023-05-21T01:11:51;13.00;;;5.30;;
11034;SDS011;5571;48.110;-1.706;2023-05-21T01:14:19;21.80;;;4.50;;
11034;SDS011;5571;48.110;-1.706;2023-05-21T01:16:46;8.90;;;4.00;;
11034;SDS011;5571;48.110;-1.706;2023-05-21T01:19:17;11.43;;;3.80;;
11034;SDS011;5571;48.110;-1.706;2023-05-21T01:21:45;11.67;;;4.00;;
11034;SDS011;5571;48.110;-1.706;2023-05-21T01:24:15;10.80;;;3.80;;
11034;SDS011;5571;48.110;-1.706;2023-05-21T01:26:41;9.93;;;3.40;;
11034;SDS011;5571;48.110;-1.706;2023-05-21T01:29:08;8.50;;;3.60;;
11034;SDS011;5571;48.110;-1.706;2023-05-21T01:34:44;11.57;;;3.53;;
11034;SDS011;5571;48.110;-1.706;2023-05-21T01:38:08;8.17;;;3.27;;
11034;SDS011;5571;48.110;-1.706;2023-05-21T01:40:17;10.63;;;3.37;;
11034;SDS011;5571;48.110;-1.706;2023-05-21T01:42:58;13.33;;;3.67;;
11034;SDS011;5571;48.110;-1.706;2023-05-21T01:45:24;11.70;;;3.20;;
11034;SDS011;5571;48.110;-1.706;2023-05-21T01:47:52;9.43;;;3.23;;
11034;SDS011;5571;48.110;-1.706;2023-05-21T01:50:19;8.80;;;3.23;;
11034;SDS011;5571;48.110;-1.706;2023-05-21T01:52:50;11.20;;;3.73;;
11034;SDS011;5571;48.110;-1.706;2023-05-21T01:55:18;8.73;;;3.10;;
11034;SDS011;5571;48.110;-1.706;2023-05-21T01:57:48;7.27;;;3.20;;
11034;SDS011;5571;48.110;-1.706;2023-05-21T02:00:20;12.17;;;3.60;;
11034;SDS011;5571;48.110;-1.706;2023-05-21T02:02:47;9.90;;;3.47;;
11034;SDS011;5571;48.110;-1.706;2023-05-21T02:05:13;10.47;;;3.13;;
11034;SDS011;5571;48.110;-1.706;2023-05-21T02:07:39;10.37;;;3.10;;
11034;SDS011;5571;48.110;-1.706;2023-05-21T02:10:05;10.07;;;3.47;;
11034;SDS011;5571;48.110;-1.706;2023-05-21T02:12:31;8.23;;;3.33;;
11034;SDS011;5571;48.110;-1.706;2023-05-21T02:14:57;21.47;;;3.77;;
11034;SDS011;5571;48.110;-1.706;2023-05-21T02:17:23;16.20;;;3.57;;
11034;SDS011;5571;48.110;-1.706;2023-05-21T02:19:50;11.23;;;3.17;;
11034;SDS011;5571;48.110;-1.706;2023-05-21T02:22:16;11.13;;;3.53;;
11034;SDS011;5571;48.110;-1.706;2023-05-21T02:24:41;7.57;;;2.87;;
11034;SDS011;5571;48.110;-1.706;2023-05-21T02:27:07;7.67;;;3.10;;
11034;SDS011;5571;48.110;-1.706;2023-05-21T02:29:34;10.33;;;3.23;;
11034;SDS011;5571;48.110;-1.706;2023-05-21T02:32:00;11.07;;;3.50;;
11034;SDS011;5571;48.110;-1.706;2023-05-21T02:34:26;14.03;;;3.47;;
11034;SDS011;5571;48.110;-1.706;2023-05-21T02:36:54;10.07;;;3.00;;
11034;SDS011;5571;48.110;-1.706;2023-05-21T02:39:20;8.37;;;3.10;;
11034;SDS011;5571;48.110;-1.706;2023-05-21T02:41:46;14.33;;;3.20;;
11034;SDS011;5571;48.110;-1.706;2023-05-21T02:44:12;8.87;;;3.53;;
11034;SDS011;5571;48.110;-1.706;2023-05-21T02:46:38;11.57;;;3.40;;
11034;SDS011;5571;48.110;-1.706;2023-05-21T02:49:03;9.27;;;3.37;;
11034;SDS011;5571;48.110;-1.706;2023-05-21T02:51:29;12.87;;;3.63;;
11034;SDS011;5571;48.110;-1.706;2023-05-21T02:53:55;12.30;;;3.63;;
11034;SDS011;5571;48.110;-1.706;2023-05-21T02:56:21;8.37;;;2.90;;
11034;SDS011;5571;48.110;-1.706;2023-05-21T02:58:47;12.87;;;3.37;;
11034;SDS011;5571;48.110;-1.706;2023-05-21T03:01:12;7.93;;;2.97;;
11034;SDS011;5571;48.110;-1.706;2023-05-21T03:03:38;11.07;;;3.50;;
11034;SDS011;5571;48.110;-1.706;2023-05-21T03:06:04;12.87;;;3.20;;
11034;SDS011;5571;48.110;-1.706;2023-05-21T03:08:29;12.80;;;3.10;;
11034;SDS011;5571;48.110;-1.706;2023-05-21T03:10:55;8.93;;;3.27;;
11034;SDS011;5571;48.110;-1.706;2023-05-21T03:13:21;13.90;;;3.40;;
11034;SDS011;5571;48.110;-1.706;2023-05-21T03:15:47;13.20;;;3.53;;
11034;SDS011;5571;48.110;-1.706;2023-05-21T03:18:12;12.80;;;3.27;;
11034;SDS011;5571;48.110;-1.706;2023-05-21T03:20:38;14.77;;;3.47;;
11034;SDS011;5571;48.110;-1.706;2023-05-21T03:23:07;11.77;;;3.20;;
11034;SDS011;5571;48.110;-1.706;2023-05-21T03:25:36;9.50;;;3.43;;
11034;SDS011;5571;48.110;-1.706;2023-05-21T03:28:02;9.63;;;3.00;;
11034;SDS011;5571;48.110;-1.706;2023-05-21T03:30:28;11.83;;;3.23;;
11034;SDS011;5571;48.110;-1.706;2023-05-21T03:32:53;9.37;;;3.00;;
11034;SDS011;5571;48.110;-1.706;2023-05-21T03:35:20;12.77;;;2.93;;
11034;SDS011;5571;48.110;-1.706;2023-05-21T03:37:45;10.30;;;3.03;;
11034;SDS011;5571;48.110;-1.706;2023-05-21T03:40:11;14.43;;;3.17;;
11034;SDS011;5571;48.110;-1.706;2023-05-21T03:42:37;11.07;;;3.40;;
11034;SDS011;5571;48.110;-1.706;2023-05-21T03:45:03;9.03;;;3.20;;
11034;SDS011;5571;48.110;-1.706;2023-05-21T03:47:30;9.03;;;3.43;;
11034;SDS011;5571;48.110;-1.706;2023-05-21T03:49:56;9.03;;;3.10;;
11034;SDS011;5571;48.110;-1.706;2023-05-21T03:52:21;16.07;;;3.30;;
11034;SDS011;5571;48.110;-1.706;2023-05-21T03:54:47;13.03;;;2.70;;
11034;SDS011;5571;48.110;-1.706;2023-05-21T03:57:13;12.37;;;3.37;;
11034;SDS011;5571;48.110;-1.706;2023-05-21T03:59:38;9.77;;;3.40;;
11034;SDS011;5571;48.110;-1.706;2023-05-21T04:02:04;12.50;;;3.43;;
11034;SDS011;5571;48.110;-1.706;2023-05-21T04:04:29;16.87;;;3.50;;
11034;SDS011;5571;48.110;-1.706;2023-05-21T04:06:55;9.90;;;2.90;;
11034;SDS011;5571;48.110;-1.706;2023-05-21T04:09:20;10.83;;;3.20;;
11034;SDS011;5571;48.110;-1.706;2023-05-21T04:11:46;9.77;;;3.40;;
11034;SDS011;5571;48.110;-1.706;2023-05-21T04:14:12;15.90;;;3.80;;
11034;SDS011;5571;48.110;-1.706;2023-05-21T04:16:38;16.23;;;3.53;;
11034;SDS011;5571;48.110;-1.706;2023-05-21T04:19:03;15.57;;;3.70;;
11034;SDS011;5571;48.110;-1.706;2023-05-21T04:21:30;13.27;;;3.40;;
11034;SDS011;5571;48.110;-1.706;2023-05-21T04:23:56;14.07;;;3.87;;
11034;SDS011;5571;48.110;-1.706;2023-05-21T04:26:24;17.43;;;4.07;;
11034;SDS011;5571;48.110;-1.706;2023-05-21T04:28:50;17.00;;;3.83;;
11034;SDS011;5571;48.110;-1.706;2023-05-21T04:31:17;9.77;;;3.90;;
11034;SDS011;5571;48.110;-1.706;2023-05-21T04:33:43;14.93;;;3.63;;
11034;SDS011;5571;48.110;-1.706;2023-05-21T04:36:10;13.97;;;3.70;;
11034;SDS011;5571;48.110;-1.706;2023-05-21T04:38:36;10.60;;;3.93;;
11034;SDS011;5571;48.110;-1.706;2023-05-21T04:41:02;18.13;;;4.97;;
11034;SDS011;5571;48.110;-1.706;2023-05-21T04:43:28;17.80;;;4.00;;
11034;SDS011;5571;48.110;-1.706;2023-05-21T04:45:53;15.17;;;4.27;;
11034;SDS011;5571;48.110;-1.706;2023-05-21T04:48:23;11.23;;;3.80;;
11034;SDS011;5571;48.110;-1.706;2023-05-21T04:50:51;12.43;;;4.20;;
11034;SDS011;5571;48.110;-1.706;2023-05-21T04:53:18;11.93;;;4.37;;
11034;SDS011;5571;48.110;-1.706;2023-05-21T04:55:43;11.57;;;4.30;;
11034;SDS011;5571;48.110;-1.706;2023-05-21T04:58:10;10.63;;;4.00;;
11034;SDS011;5571;48.110;-1.706;2023-05-21T05:00:37;13.17;;;4.17;;
11034;SDS011;5571;48.110;-1.706;2023-05-21T05:03:03;12.17;;;4.37;;
11034;SDS011;5571;48.110;-1.706;2023-05-21T05:05:29;12.43;;;4.73;;
11034;SDS011;5571;48.110;-1.706;2023-05-21T05:07:54;15.63;;;5.00;;
11034;SDS011;5571;48.110;-1.706;2023-05-21T05:10:22;14.00;;;4.73;;
11034;SDS011;5571;48.110;-1.706;2023-05-21T05:12:47;17.50;;;5.43;;
11034;SDS011;5571;48.110;-1.706;2023-05-21T05:15:13;13.67;;;4.93;;
11034;SDS011;5571;48.110;-1.706;2023-05-21T05:17:39;11.40;;;4.77;;
11034;SDS011;5571;48.110;-1.706;2023-05-21T05:20:08;15.37;;;4.73;;
11034;SDS011;5571;48.110;-1.706;2023-05-21T05:22:35;16.33;;;4.53;;
11034;SDS011;5571;48.110;-1.706;2023-05-21T05:25:00;16.30;;;5.03;;
11034;SDS011;5571;48.110;-1.706;2023-05-21T05:27:26;10.43;;;4.50;;
11034;SDS011;5571;48.110;-1.706;2023-05-21T05:29:52;10.20;;;4.07;;
11034;SDS011;5571;48.110;-1.706;2023-05-21T05:32:17;13.43;;;5.00;;
11034;SDS011;5571;48.110;-1.706;2023-05-21T05:34:44;15.07;;;4.33;;
11034;SDS011;5571;48.110;-1.706;2023-05-21T05:37:10;11.63;;;4.50;;
11034;SDS011;5571;48.110;-1.706;2023-05-21T05:39:35;14.63;;;4.80;;
11034;SDS011;5571;48.110;-1.706;2023-05-21T05:42:01;20.60;;;4.77;;
11034;SDS011;5571;48.110;-1.706;2023-05-21T05:44:27;19.20;;;5.17;;
11034;SDS011;5571;48.110;-1.706;2023-05-21T05:46:53;21.27;;;5.20;;
11034;SDS011;5571;48.110;-1.706;2023-05-21T05:49:18;16.40;;;5.20;;
11034;SDS011;5571;48.110;-1.706;2023-05-21T05:51:44;12.00;;;4.67;;
11034;SDS011;5571;48.110;-1.706;2023-05-21T05:54:10;15.50;;;4.90;;
11034;SDS011;5571;48.110;-1.706;2023-05-21T05:56:35;11.17;;;4.73;;
11034;SDS011;5571;48.110;-1.706;2023-05-21T05:59:01;15.00;;;5.40;;
11034;SDS011;5571;48.110;-1.706;2023-05-21T06:01:26;10.47;;;4.87;;
11034;SDS011;5571;48.110;-1.706;2023-05-21T06:03:52;17.10;;;5.80;;
11034;SDS011;5571;48.110;-1.706;2023-05-21T06:06:17;20.37;;;6.13;;
11034;SDS011;5571;48.110;-1.706;2023-05-21T06:08:43;21.10;;;6.27;;
11034;SDS011;5571;48.110;-1.706;2023-05-21T06:11:10;14.27;;;5.23;;
11034;SDS011;5571;48.110;-1.706;2023-05-21T06:13:35;18.73;;;5.47;;
11034;SDS011;5571;48.110;-1.706;2023-05-21T06:16:01;17.40;;;5.80;;
11034;SDS011;5571;48.110;-1.706;2023-05-21T06:18:27;17.27;;;5.60;;
11034;SDS011;5571;48.110;-1.706;2023-05-21T06:20:53;13.67;;;5.43;;
11034;SDS011;5571;48.110;-1.706;2023-05-21T06:23:19;20.63;;;5.97;;
11034;SDS011;5571;48.110;-1.706;2023-05-21T06:25:44;17.10;;;5.90;;
11034;SDS011;5571;48.110;-1.706;2023-05-21T06:28:10;20.37;;;5.90;;
11034;SDS011;5571;48.110;-1.706;2023-05-21T06:30:36;19.90;;;5.87;;
11034;SDS011;5571;48.110;-1.706;2023-05-21T06:33:01;16.10;;;5.47;;
11034;SDS011;5571;48.110;-1.706;2023-05-21T06:35:27;16.97;;;5.60;;
11034;SDS011;5571;48.110;-1.706;2023-05-21T06:37:53;12.17;;;5.67;;
11034;SDS011;5571;48.110;-1.706;2023-05-21T06:40:18;14.20;;;6.13;;
11034;SDS011;5571;48.110;-1.706;2023-05-21T06:42:44;17.27;;;6.20;;
11034;SDS011;5571;48.110;-1.706;2023-05-21T06:45:10;13.07;;;5.60;;
11034;SDS011;5571;48.110;-1.706;2023-05-21T06:47:36;16.00;;;6.33;;
11034;SDS011;5571;48.110;-1.706;2023-05-21T06:50:02;13.20;;;5.70;;
11034;SDS011;5571;48.110;-1.706;2023-05-21T06:52:27;15.77;;;6.30;;
11034;SDS011;5571;48.110;-1.706;2023-05-21T06:54:53;13.67;;;6.43;;
11034;SDS011;5571;48.110;-1.706;2023-05-21T06:57:19;14.70;;;5.97;;
11034;SDS011;5571;48.110;-1.706;2023-05-21T06:59:44;18.23;;;6.03;;
11034;SDS011;5571;48.110;-1.706;2023-05-21T07:02:10;18.07;;;6.37;;
11034;SDS011;5571;48.110;-1.706;2023-05-21T07:04:36;20.87;;;6.27;;
11034;SDS011;5571;48.110;-1.706;2023-05-21T07:07:01;16.50;;;6.10;;
11034;SDS011;5571;48.110;-1.706;2023-05-21T07:09:30;14.63;;;6.27;;
11034;SDS011;5571;48.110;-1.706;2023-05-21T07:11:56;16.93;;;6.60;;
11034;SDS011;5571;48.110;-1.706;2023-05-21T07:14:23;15.53;;;6.57;;
11034;SDS011;5571;48.110;-1.706;2023-05-21T07:16:49;16.43;;;6.20;;
11034;SDS011;5571;48.110;-1.706;2023-05-21T07:19:15;17.13;;;6.03;;
11034;SDS011;5571;48.110;-1.706;2023-05-21T07:21:40;15.77;;;6.47;;
11034;SDS011;5571;48.110;-1.706;2023-05-21T07:24:06;17.73;;;6.60;;
11034;SDS011;5571;48.110;-1.706;2023-05-21T07:26:32;22.60;;;6.63;;
11034;SDS011;5571;48.110;-1.706;2023-05-21T07:28:57;15.00;;;6.20;;
11034;SDS011;5571;48.110;-1.706;2023-05-21T07:31:23;21.43;;;6.77;;
11034;SDS011;5571;48.110;-1.706;2023-05-21T07:33:49;15.60;;;6.17;;
11034;SDS011;5571;48.110;-1.706;2023-05-21T07:36:15;15.60;;;6.57;;
11034;SDS011;5571;48.110;-1.706;2023-05-21T07:38:40;14.83;;;6.60;;
11034;SDS011;5571;48.110;-1.706;2023-05-21T07:41:07;10.13;;;6.00;;
11034;SDS011;5571;48.110;-1.706;2023-05-21T07:43:32;14.60;;;6.63;;
11034;SDS011;5571;48.110;-1.706;2023-05-21T07:45:59;15.07;;;6.30;;
11034;SDS011;5571;48.110;-1.706;2023-05-21T07:48:25;14.87;;;6.87;;
11034;SDS011;5571;48.110;-1.706;2023-05-21T07:50:51;19.67;;;6.30;;
11034;SDS011;5571;48.110;-1.706;2023-05-21T07:53:17;15.10;;;6.10;;
11034;SDS011;5571;48.110;-1.706;2023-05-21T07:55:43;15.70;;;6.60;;
11034;SDS011;5571;48.110;-1.706;2023-05-21T07:58:17;15.63;;;6.60;;
11034;SDS011;5571;48.110;-1.706;2023-05-21T08:00:46;16.80;;;6.50;;
11034;SDS011;5571;48.110;-1.706;2023-05-21T08:03:15;19.53;;;6.47;;
11034;SDS011;5571;48.110;-1.706;2023-05-21T08:05:42;18.27;;;7.37;;
11034;SDS011;5571;48.110;-1.706;2023-05-21T08:08:12;21.43;;;7.53;;
11034;SDS011;5571;48.110;-1.706;2023-05-21T08:10:38;18.30;;;7.10;;
11034;SDS011;5571;48.110;-1.706;2023-05-21T08:13:04;19.57;;;6.60;;
11034;SDS011;5571;48.110;-1.706;2023-05-21T08:15:30;16.33;;;6.77;;
11034;SDS011;5571;48.110;-1.706;2023-05-21T08:17:55;16.17;;;7.10;;
11034;SDS011;5571;48.110;-1.706;2023-05-21T08:20:21;15.57;;;6.87;;
11034;SDS011;5571;48.110;-1.706;2023-05-21T08:22:46;17.80;;;7.07;;
11034;SDS011;5571;48.110;-1.706;2023-05-21T08:25:13;19.07;;;7.10;;
11034;SDS011;5571;48.110;-1.706;2023-05-21T08:27:39;12.90;;;6.57;;
11034;SDS011;5571;48.110;-1.706;2023-05-21T08:30:05;12.87;;;6.50;;
11034;SDS011;5571;48.110;-1.706;2023-05-21T08:32:31;15.23;;;6.63;;
11034;SDS011;5571;48.110;-1.706;2023-05-21T08:34:57;14.93;;;6.73;;
11034;SDS011;5571;48.110;-1.706;2023-05-21T08:37:24;17.73;;;7.13;;
11034;SDS011;5571;48.110;-1.706;2023-05-21T08:39:50;16.33;;;6.87;;
11034;SDS011;5571;48.110;-1.706;2023-05-21T08:42:24;15.87;;;7.33;;
11034;SDS011;5571;48.110;-1.706;2023-05-21T08:45:00;15.33;;;7.70;;
11034;SDS011;5571;48.110;-1.706;2023-05-21T08:47:31;15.67;;;7.03;;
11034;SDS011;5571;48.110;-1.706;2023-05-21T08:50:00;14.60;;;7.10;;
11034;SDS011;5571;48.110;-1.706;2023-05-21T08:52:33;16.40;;;7.53;;
11034;SDS011;5571;48.110;-1.706;2023-05-21T08:54:59;15.37;;;7.83;;
11034;SDS011;5571;48.110;-1.706;2023-05-21T08:57:27;13.90;;;7.10;;
11034;SDS011;5571;48.110;-1.706;2023-05-21T08:59:55;15.43;;;7.57;;
11034;SDS011;5571;48.110;-1.706;2023-05-21T09:02:21;17.60;;;8.03;;
11034;SDS011;5571;48.110;-1.706;2023-05-21T09:04:49;16.70;;;7.50;;
11034;SDS011;5571;48.110;-1.706;2023-05-21T09:07:20;16.10;;;7.93;;
11034;SDS011;5571;48.110;-1.706;2023-05-21T09:09:54;15.23;;;7.20;;
11034;SDS011;5571;48.110;-1.706;2023-05-21T09:12:25;14.13;;;7.70;;
11034;SDS011;5571;48.110;-1.706;2023-05-21T09:14:52;15.17;;;7.97;;
11034;SDS011;5571;48.110;-1.706;2023-05-21T09:17:22;20.40;;;8.07;;
11034;SDS011;5571;48.110;-1.706;2023-05-21T09:22:42;20.20;;;8.30;;
11034;SDS011;5571;48.110;-1.706;2023-05-21T09:25:09;17.00;;;8.30;;
11034;SDS011;5571;48.110;-1.706;2023-05-21T09:27:36;16.17;;;8.13;;
11034;SDS011;5571;48.110;-1.706;2023-05-21T09:30:03;15.77;;;8.03;;
11034;SDS011;5571;48.110;-1.706;2023-05-21T09:32:30;15.90;;;7.97;;
11034;SDS011;5571;48.110;-1.706;2023-05-21T09:34:56;16.37;;;8.10;;
11034;SDS011;5571;48.110;-1.706;2023-05-21T09:37:21;15.83;;;8.07;;
11034;SDS011;5571;48.110;-1.706;2023-05-21T09:39:48;14.53;;;7.67;;
11034;SDS011;5571;48.110;-1.706;2023-05-21T09:42:13;16.47;;;8.20;;
11034;SDS011;5571;48.110;-1.706;2023-05-21T09:44:42;14.02;;;7.55;;
11034;SDS011;5571;48.110;-1.706;2023-05-21T09:47:08;14.98;;;7.38;;
11034;SDS011;5571;48.110;-1.706;2023-05-21T09:49:35;15.05;;;8.13;;
11034;SDS011;5571;48.110;-1.706;2023-05-21T09:52:01;13.02;;;8.20;;
11034;SDS011;5571;48.110;-1.706;2023-05-21T09:54:32;16.92;;;8.20;;
11034;SDS011;5571;48.110;-1.706;2023-05-21T09:57:01;17.00;;;8.00;;
11034;SDS011;5571;48.110;-1.706;2023-05-21T09:59:39;17.75;;;8.40;;
11034;SDS011;5571;48.110;-1.706;2023-05-21T10:05:01;15.75;;;7.95;;
11034;SDS011;5571;48.110;-1.706;2023-05-21T10:07:32;17.10;;;7.78;;
11034;SDS011;5571;48.110;-1.706;2023-05-21T10:10:00;18.83;;;8.55;;
11034;SDS011;5571;48.110;-1.706;2023-05-21T10:12:28;16.42;;;7.97;;
11034;SDS011;5571;48.110;-1.706;2023-05-21T10:15:04;15.05;;;7.43;;
11034;SDS011;5571;48.110;-1.706;2023-05-21T10:17:36;13.30;;;8.25;;
11034;SDS011;5571;48.110;-1.706;2023-05-21T10:20:03;15.63;;;7.95;;
11034;SDS011;5571;48.110;-1.706;2023-05-21T10:22:31;13.00;;;7.25;;
11034;SDS011;5571;48.110;-1.706;2023-05-21T10:24:58;15.52;;;8.45;;
11034;SDS011;5571;48.110;-1.706;2023-05-21T10:27:27;13.70;;;8.00;;
11034;SDS011;5571;48.110;-1.706;2023-05-21T10:29:56;13.52;;;7.20;;
11034;SDS011;5571;48.110;-1.706;2023-05-21T10:32:23;17.00;;;7.93;;
11034;SDS011;5571;48.110;-1.706;2023-05-21T10:34:51;14.38;;;8.07;;
11034;SDS011;5571;48.110;-1.706;2023-05-21T10:37:18;11.50;;;7.00;;
11034;SDS011;5571;48.110;-1.706;2023-05-21T10:39:47;11.60;;;7.20;;
11034;SDS011;5571;48.110;-1.706;2023-05-21T10:47:47;11.88;;;6.80;;
11034;SDS011;5571;48.110;-1.706;2023-05-21T10:56:30;12.63;;;7.40;;
11034;SDS011;5571;48.110;-1.706;2023-05-21T11:01:47;12.05;;;6.95;;
11034;SDS011;5571;48.110;-1.706;2023-05-21T11:04:25;16.27;;;6.63;;
11034;SDS011;5571;48.110;-1.706;2023-05-21T11:06:51;13.75;;;7.30;;
11034;SDS011;5571;48.110;-1.706;2023-05-21T11:09:17;14.13;;;7.03;;
11034;SDS011;5571;48.110;-1.706;2023-05-21T11:11:44;13.90;;;6.75;;
11034;SDS011;5571;48.110;-1.706;2023-05-21T11:22:04;11.48;;;7.30;;
11034;SDS011;5571;48.110;-1.706;2023-05-21T11:24:32;17.02;;;7.00;;
11034;SDS011;5571;48.110;-1.706;2023-05-21T11:27:01;9.38;;;6.60;;
11034;SDS011;5571;48.110;-1.706;2023-05-21T11:29:35;13.13;;;7.13;;
11034;SDS011;5571;48.110;-1.706;2023-05-21T11:32:06;13.38;;;6.63;;
11034;SDS011;5571;48.110;-1.706;2023-05-21T11:39:51;14.57;;;6.80;;
11034;SDS011;5571;48.110;-1.706;2023-05-21T11:44:56;14.60;;;6.85;;
11034;SDS011;5571;48.110;-1.706;2023-05-21T11:47:23;13.48;;;6.85;;
11034;SDS011;5571;48.110;-1.706;2023-05-21T11:49:52;8.23;;;5.85;;
11034;SDS011;5571;48.110;-1.706;2023-05-21T11:52:18;17.02;;;6.93;;
11034;SDS011;5571;48.110;-1.706;2023-05-21T11:54:45;13.68;;;6.10;;
11034;SDS011;5571;48.110;-1.706;2023-05-21T11:57:19;15.20;;;6.80;;
11034;SDS011;5571;48.110;-1.706;2023-05-21T11:59:45;12.95;;;7.00;;
11034;SDS011;5571;48.110;-1.706;2023-05-21T12:02:20;10.90;;;5.85;;
11034;SDS011;5571;48.110;-1.706;2023-05-21T12:04:46;10.98;;;6.80;;
11034;SDS011;5571;48.110;-1.706;2023-05-21T12:07:14;14.05;;;6.40;;
11034;SDS011;5571;48.110;-1.706;2023-05-21T12:12:12;11.27;;;6.78;;
11034;SDS011;5571;48.110;-1.706;2023-05-21T12:14:41;13.50;;;6.18;;
11034;SDS011;5571;48.110;-1.706;2023-05-21T12:17:12;11.07;;;6.40;;
11034;SDS011;5571;48.110;-1.706;2023-05-21T12:19:40;13.35;;;7.05;;
11034;SDS011;5571;48.110;-1.706;2023-05-21T12:22:06;10.35;;;6.13;;
11034;SDS011;5571;48.110;-1.706;2023-05-21T12:24:33;16.88;;;6.57;;
11034;SDS011;5571;48.110;-1.706;2023-05-21T12:26:59;13.05;;;6.70;;
11034;SDS011;5571;48.110;-1.706;2023-05-21T12:29:29;12.82;;;6.47;;
11034;SDS011;5571;48.110;-1.706;2023-05-21T12:31:59;9.07;;;6.18;;
11034;SDS011;5571;48.110;-1.706;2023-05-21T12:34:41;11.93;;;6.38;;
11034;SDS011;5571;48.110;-1.706;2023-05-21T12:37:15;10.15;;;6.88;;
11034;SDS011;5571;48.110;-1.706;2023-05-21T12:39:43;12.48;;;6.95;;
11034;SDS011;5571;48.110;-1.706;2023-05-21T12:42:10;14.85;;;6.57;;
11034;SDS011;5571;48.110;-1.706;2023-05-21T12:44:37;14.15;;;6.05;;
11034;SDS011;5571;48.110;-1.706;2023-05-21T12:47:12;12.57;;;6.28;;
11034;SDS011;5571;48.110;-1.706;2023-05-21T12:52:09;9.60;;;6.05;;
11034;SDS011;5571;48.110;-1.706;2023-05-21T12:54:37;15.48;;;6.30;;
11034;SDS011;5571;48.110;-1.706;2023-05-21T12:57:07;16.48;;;7.50;;
11034;SDS011;5571;48.110;-1.706;2023-05-21T13:02:21;16.52;;;7.15;;
11034;SDS011;5571;48.110;-1.706;2023-05-21T13:04:53;13.70;;;6.32;;
11034;SDS011;5571;48.110;-1.706;2023-05-21T13:07:24;11.50;;;7.28;;
11034;SDS011;5571;48.110;-1.706;2023-05-21T13:09:50;9.85;;;6.18;;
11034;SDS011;5571;48.110;-1.706;2023-05-21T13:12:17;14.05;;;7.40;;
11034;SDS011;5571;48.110;-1.706;2023-05-21T13:14:48;10.20;;;6.32;;
11034;SDS011;5571;48.110;-1.706;2023-05-21T13:17:14;14.80;;;6.93;;
11034;SDS011;5571;48.110;-1.706;2023-05-21T13:19:40;12.68;;;6.35;;
11034;SDS011;5571;48.110;-1.706;2023-05-21T13:22:06;15.07;;;6.82;;
11034;SDS011;5571;48.110;-1.706;2023-05-21T13:24:31;12.88;;;6.50;;
11034;SDS011;5571;48.110;-1.706;2023-05-21T13:26:57;13.77;;;5.88;;
11034;SDS011;5571;48.110;-1.706;2023-05-21T13:29:23;14.95;;;6.20;;
11034;SDS011;5571;48.110;-1.706;2023-05-21T13:31:49;12.60;;;6.78;;
11034;SDS011;5571;48.110;-1.706;2023-05-21T13:34:14;11.68;;;6.30;;
11034;SDS011;5571;48.110;-1.706;2023-05-21T13:36:40;10.55;;;5.65;;
11034;SDS011;5571;48.110;-1.706;2023-05-21T13:39:06;10.43;;;6.18;;
11034;SDS011;5571;48.110;-1.706;2023-05-21T13:41:32;10.93;;;6.45;;
11034;SDS011;5571;48.110;-1.706;2023-05-21T13:43:58;12.63;;;5.72;;
11034;SDS011;5571;48.110;-1.706;2023-05-21T13:46:23;10.73;;;5.78;;
11034;SDS011;5571;48.110;-1.706;2023-05-21T13:48:49;11.48;;;5.78;;
11034;SDS011;5571;48.110;-1.706;2023-05-21T13:51:15;12.07;;;6.20;;
11034;SDS011;5571;48.110;-1.706;2023-05-21T13:53:41;14.18;;;6.18;;
11034;SDS011;5571;48.110;-1.706;2023-05-21T13:56:06;9.98;;;5.38;;
11034;SDS011;5571;48.110;-1.706;2023-05-21T13:58:32;11.05;;;5.85;;
11034;SDS011;5571;48.110;-1.706;2023-05-21T14:00:59;12.98;;;5.68;;
11034;SDS011;5571;48.110;-1.706;2023-05-21T14:03:26;12.90;;;6.22;;
11034;SDS011;5571;48.110;-1.706;2023-05-21T14:05:52;13.00;;;5.95;;
11034;SDS011;5571;48.110;-1.706;2023-05-21T14:08:18;9.25;;;6.03;;
11034;SDS011;5571;48.110;-1.706;2023-05-21T14:10:45;13.38;;;6.18;;
11034;SDS011;5571;48.110;-1.706;2023-05-21T14:13:11;10.25;;;5.38;;
11034;SDS011;5571;48.110;-1.706;2023-05-21T14:15:37;9.85;;;5.55;;
11034;SDS011;5571;48.110;-1.706;2023-05-21T14:18:04;17.17;;;5.60;;
11034;SDS011;5571;48.110;-1.706;2023-05-21T14:20:32;13.23;;;5.55;;
11034;SDS011;5571;48.110;-1.706;2023-05-21T14:22:58;15.18;;;5.63;;
11034;SDS011;5571;48.110;-1.706;2023-05-21T14:25:24;16.58;;;6.28;;
11034;SDS011;5571;48.110;-1.706;2023-05-21T14:27:49;10.27;;;5.45;;
11034;SDS011;5571;48.110;-1.706;2023-05-21T14:30:15;10.70;;;5.47;;
11034;SDS011;5571;48.110;-1.706;2023-05-21T14:32:40;13.98;;;6.03;;
11034;SDS011;5571;48.110;-1.706;2023-05-21T14:35:06;12.60;;;5.80;;
11034;SDS011;5571;48.110;-1.706;2023-05-21T14:37:32;10.90;;;5.53;;
11034;SDS011;5571;48.110;-1.706;2023-05-21T14:39:58;15.90;;;5.90;;
11034;SDS011;5571;48.110;-1.706;2023-05-21T14:42:23;14.57;;;5.82;;
11034;SDS011;5571;48.110;-1.706;2023-05-21T14:44:49;13.40;;;6.18;;
11034;SDS011;5571;48.110;-1.706;2023-05-21T14:47:15;15.77;;;6.82;;
11034;SDS011;5571;48.110;-1.706;2023-05-21T14:49:40;11.20;;;6.25;;
11034;SDS011;5571;48.110;-1.706;2023-05-21T14:52:06;11.20;;;5.85;;
11034;SDS011;5571;48.110;-1.706;2023-05-21T14:54:31;12.57;;;5.82;;
11034;SDS011;5571;48.110;-1.706;2023-05-21T14:56:57;12.68;;;5.95;;
11034;SDS011;5571;48.110;-1.706;2023-05-21T14:59:22;11.65;;;5.65;;
11034;SDS011;5571;48.110;-1.706;2023-05-21T15:01:48;12.90;;;6.13;;
11034;SDS011;5571;48.110;-1.706;2023-05-21T15:04:14;11.35;;;5.30;;
11034;SDS011;5571;48.110;-1.706;2023-05-21T15:06:40;12.93;;;5.53;;
11034;SDS011;5571;48.110;-1.706;2023-05-21T15:09:06;12.65;;;5.60;;
11034;SDS011;5571;48.110;-1.706;2023-05-21T15:11:31;11.82;;;5.53;;
11034;SDS011;5571;48.110;-1.706;2023-05-21T15:13:58;11.40;;;5.63;;
11034;SDS011;5571;48.110;-1.706;2023-05-21T15:16:23;13.00;;;6.03;;
11034;SDS011;5571;48.110;-1.706;2023-05-21T15:18:49;14.70;;;5.22;;
11034;SDS011;5571;48.110;-1.706;2023-05-21T15:21:15;10.18;;;4.97;;